createdAt,value
2023-04-09T00:00:04.446Z,101322.44
2023-04-09T00:02:39.476Z,101311.53
2023-04-09T00:05:07.410Z,101310.84
2023-04-09T00:07:34.176Z,101311.00
2023-04-09T00:10:00.838Z,101303.22
2023-04-09T00:12:27.481Z,101303.69
2023-04-09T00:14:54.099Z,101301.50
2023-04-09T00:17:20.750Z,101292.63
2023-04-09T00:19:48.080Z,101292.66
2023-04-09T00:22:15.480Z,101291.09
2023-04-09T00:24:42.099Z,101288.63
2023-04-09T00:27:08.786Z,101294.06
2023-04-09T00:29:35.378Z,101292.94
2023-04-09T00:32:02.147Z,101292.25
2023-04-09T00:34:28.967Z,101293.34
2023-04-09T00:36:55.758Z,101286.31
2023-04-09T00:39:22.368Z,101287.03
2023-04-09T00:41:48.934Z,101285.13
2023-04-09T00:44:15.716Z,101292.22
2023-04-09T00:46:42.299Z,101287.25
2023-04-09T00:49:08.974Z,101294.75
2023-04-09T00:51:35.932Z,101287.59
2023-04-09T00:54:02.656Z,101290.88
2023-04-09T00:56:30.096Z,101294.28
2023-04-09T00:58:57.210Z,101288.53
2023-04-09T01:01:23.959Z,101290.50
2023-04-09T01:03:51.141Z,101290.69
2023-04-09T01:06:27.820Z,101290.69
2023-04-09T01:09:06.263Z,101292.00
2023-04-09T01:11:43.437Z,101290.16
2023-04-09T01:14:32.912Z,101295.06
2023-04-09T01:17:11.514Z,101286.31
2023-04-09T01:19:54.765Z,101283.66
2023-04-09T01:22:32.591Z,101281.03
2023-04-09T01:25:27.147Z,101275.50
2023-04-09T01:28:17.469Z,101280.03
2023-04-09T01:30:49.293Z,101280.19
2023-04-09T01:33:18.364Z,101288.03
2023-04-09T01:35:47.344Z,101283.00
2023-04-09T01:38:16.449Z,101286.53
2023-04-09T01:40:43.662Z,101285.88
2023-04-09T01:43:12.726Z,101284.84
2023-04-09T01:45:40.546Z,101282.16
2023-04-09T01:48:07.568Z,101280.97
2023-04-09T01:50:35.426Z,101290.44
2023-04-09T01:53:02.731Z,101292.97
2023-04-09T01:55:29.372Z,101291.13
2023-04-09T01:57:56.006Z,101284.50
2023-04-09T02:00:24.944Z,101295.09
2023-04-09T02:03:22.801Z,101291.63
2023-04-09T02:05:57.454Z,101290.44
2023-04-09T02:08:26.300Z,101298.16
2023-04-09T02:10:58.236Z,101302.09
2023-04-09T02:13:27.036Z,101296.28
2023-04-09T02:15:56.666Z,101294.63
2023-04-09T02:18:28.987Z,101301.66
2023-04-09T02:20:57.284Z,101295.91
2023-04-09T02:23:24.515Z,101294.41
2023-04-09T02:25:52.495Z,101294.25
2023-04-09T02:28:19.514Z,101302.97
2023-04-09T02:30:46.170Z,101291.56
2023-04-09T02:33:12.821Z,101294.88
2023-04-09T02:35:39.539Z,101292.75
2023-04-09T02:38:08.181Z,101294.38
2023-04-09T02:40:34.839Z,101289.38
2023-04-09T02:43:01.446Z,101290.28
2023-04-09T02:45:28.106Z,101291.59
2023-04-09T02:47:54.829Z,101287.88
2023-04-09T02:50:21.650Z,101283.28
2023-04-09T02:52:51.854Z,101293.81
2023-04-09T02:55:20.205Z,101290.28
2023-04-09T02:57:46.884Z,101286.56
2023-04-09T03:00:13.894Z,101291.56
2023-04-09T03:02:40.897Z,101294.81
2023-04-09T03:05:08.161Z,101298.13
2023-04-09T03:07:34.799Z,101284.09
2023-04-09T03:10:01.516Z,101283.31
2023-04-09T03:12:29.737Z,101277.88
2023-04-09T03:14:56.419Z,101283.69
2023-04-09T03:17:25.782Z,101285.41
2023-04-09T03:19:53.389Z,101284.78
2023-04-09T03:22:20.982Z,101290.13
2023-04-09T03:24:51.348Z,101278.19
2023-04-09T03:27:18.686Z,101281.31
2023-04-09T03:29:49.374Z,101275.56
2023-04-09T03:32:17.894Z,101283.00
2023-04-09T03:34:45.771Z,101278.03
2023-04-09T03:37:13.301Z,101273.41
2023-04-09T03:39:40.283Z,101274.28
2023-04-09T03:42:08.031Z,101275.25
2023-04-09T03:44:43.562Z,101271.94
2023-04-09T03:47:14.110Z,101272.56
2023-04-09T03:49:40.778Z,101269.47
2023-04-09T03:52:26.631Z,101278.13
2023-04-09T03:55:00.499Z,101271.34
2023-04-09T03:57:28.332Z,101274.22
2023-04-09T03:59:55.745Z,101278.78
2023-04-09T04:02:26.749Z,101273.41
2023-04-09T04:05:00.307Z,101275.22
2023-04-09T04:07:32.612Z,101273.78
2023-04-09T04:10:06.822Z,101275.06
2023-04-09T04:12:33.753Z,101279.00
2023-04-09T04:15:05.608Z,101272.84
2023-04-09T04:17:58.276Z,101274.00
2023-04-09T04:20:39.027Z,101276.09
2023-04-09T04:23:09.861Z,101277.56
2023-04-09T04:25:42.563Z,101277.38
2023-04-09T04:28:12.768Z,101273.44
2023-04-09T04:30:42.764Z,101282.50
2023-04-09T04:33:10.247Z,101283.56
2023-04-09T04:35:45.571Z,101285.59
2023-04-09T04:38:28.972Z,101281.28
2023-04-09T04:40:57.101Z,101289.13
2023-04-09T04:43:24.113Z,101287.06
2023-04-09T04:45:55.184Z,101285.81
2023-04-09T04:48:24.835Z,101290.00
2023-04-09T04:50:59.871Z,101294.53
2023-04-09T04:53:32.057Z,101289.16
2023-04-09T04:56:03.663Z,101290.81
2023-04-09T04:58:31.437Z,101294.72
2023-04-09T05:01:00.903Z,101298.41
2023-04-09T05:03:28.419Z,101295.50
2023-04-09T05:06:09.024Z,101298.97
2023-04-09T05:08:41.792Z,101295.88
2023-04-09T05:11:11.922Z,101300.91
2023-04-09T05:13:39.031Z,101293.47
2023-04-09T05:16:16.589Z,101293.59
2023-04-09T05:18:44.415Z,101302.50
2023-04-09T05:21:11.180Z,101305.41
2023-04-09T05:23:39.012Z,101295.53
2023-04-09T05:26:05.893Z,101298.16
2023-04-09T05:28:50.477Z,101302.25
2023-04-09T05:31:19.511Z,101300.88
2023-04-09T05:33:53.431Z,101294.22
2023-04-09T05:36:25.928Z,101305.94
2023-04-09T05:38:52.965Z,101301.22
2023-04-09T05:41:20.367Z,101301.25
2023-04-09T05:44:00.970Z,101305.56
2023-04-09T05:46:29.177Z,101310.09
2023-04-09T05:48:56.706Z,101307.41
2023-04-09T05:51:25.455Z,101311.53
2023-04-09T05:53:52.433Z,101309.63
2023-04-09T05:56:19.450Z,101309.78
2023-04-09T05:58:51.439Z,101310.88
2023-04-09T06:01:18.194Z,101313.34
2023-04-09T06:03:45.284Z,101319.75
2023-04-09T06:06:13.398Z,101318.84
2023-04-09T06:08:40.083Z,101320.97
2023-04-09T06:11:10.465Z,101325.25
2023-04-09T06:13:37.678Z,101317.63
2023-04-09T06:16:06.075Z,101322.59
2023-04-09T06:18:33.269Z,101327.56
2023-04-09T06:21:07.936Z,101329.44
2023-04-09T06:23:37.126Z,101322.63
2023-04-09T06:26:03.721Z,101319.31
2023-04-09T06:28:31.512Z,101326.97
2023-04-09T06:30:58.849Z,101323.66
2023-04-09T06:33:25.947Z,101328.34
2023-04-09T06:35:52.738Z,101332.91
2023-04-09T06:38:19.427Z,101335.53
2023-04-09T06:40:46.090Z,101330.09
2023-04-09T06:43:12.805Z,101330.47
2023-04-09T06:45:48.403Z,101337.78
2023-04-09T06:48:15.003Z,101336.19
2023-04-09T06:50:41.650Z,101339.69
2023-04-09T06:53:08.469Z,101340.63
2023-04-09T06:55:38.468Z,101342.38
2023-04-09T06:58:05.701Z,101339.09
2023-04-09T07:00:32.346Z,101342.34
2023-04-09T07:02:59.267Z,101343.81
2023-04-09T07:05:26.291Z,101337.16
2023-04-09T07:07:53.097Z,101338.94
2023-04-09T07:10:19.731Z,101334.06
2023-04-09T07:12:46.362Z,101333.56
2023-04-09T07:15:13.116Z,101331.28
2023-04-09T07:17:39.878Z,101335.94
2023-04-09T07:20:06.993Z,101331.97
2023-04-09T07:22:33.679Z,101338.28
2023-04-09T07:25:00.754Z,101332.50
2023-04-09T07:27:28.655Z,101338.56
2023-04-09T07:29:56.946Z,101328.41
2023-04-09T07:32:24.528Z,101338.91
2023-04-09T07:34:52.784Z,101342.38
2023-04-09T07:37:20.272Z,101341.13
2023-04-09T07:39:47.699Z,101331.66
2023-04-09T07:42:14.458Z,101344.31
2023-04-09T07:44:41.160Z,101346.34
2023-04-09T07:47:08.421Z,101349.03
2023-04-09T07:49:36.922Z,101350.03
2023-04-09T07:52:04.551Z,101343.25
2023-04-09T07:54:31.735Z,101341.53
2023-04-09T07:56:59.276Z,101347.63
2023-04-09T07:59:27.565Z,101347.31
2023-04-09T08:01:54.400Z,101355.06
2023-04-09T08:04:21.388Z,101355.25
2023-04-09T08:06:49.969Z,101361.88
2023-04-09T08:09:20.724Z,101356.63
2023-04-09T08:11:48.687Z,101349.97
2023-04-09T08:14:16.775Z,101357.06
2023-04-09T08:16:47.061Z,101348.94
2023-04-09T08:19:15.789Z,101360.44
2023-04-09T08:21:43.350Z,101350.72
2023-04-09T08:24:13.142Z,101350.97
2023-04-09T08:26:41.101Z,101341.00
2023-04-09T08:29:08.883Z,101352.13
2023-04-09T08:31:37.405Z,101362.50
2023-04-09T08:34:04.503Z,101351.19
2023-04-09T08:36:32.419Z,101359.16
2023-04-09T08:39:00.546Z,101366.53
2023-04-09T08:41:29.361Z,101373.78
2023-04-09T08:43:58.683Z,101370.34
2023-04-09T08:46:26.645Z,101369.69
2023-04-09T08:48:53.876Z,101368.34
2023-04-09T08:51:25.081Z,101371.25
2023-04-09T08:54:04.770Z,101379.72
2023-04-09T08:56:33.162Z,101367.97
2023-04-09T08:59:00.458Z,101371.38
2023-04-09T09:01:34.978Z,101369.19
2023-04-09T09:04:09.525Z,101380.66
2023-04-09T09:06:40.390Z,101383.25
2023-04-09T09:09:14.431Z,101382.16
2023-04-09T09:11:43.011Z,101374.41
2023-04-09T09:14:12.011Z,101371.84
2023-04-09T09:16:46.332Z,101374.03
2023-04-09T09:19:33.452Z,101386.03
2023-04-09T09:22:09.211Z,101378.72
2023-04-09T09:24:50.721Z,101368.00
2023-04-09T09:27:40.505Z,101377.38
2023-04-09T09:30:10.643Z,101373.13
2023-04-09T09:32:38.068Z,101373.34
2023-04-09T09:35:07.204Z,101376.16
2023-04-09T09:37:34.777Z,101367.72
2023-04-09T09:40:02.122Z,101368.94
2023-04-09T09:42:41.054Z,101367.31
2023-04-09T09:45:18.291Z,101371.66
2023-04-09T09:47:47.374Z,101372.16
2023-04-09T09:50:14.183Z,101368.38
2023-04-09T09:52:45.886Z,101365.47
2023-04-09T09:55:35.914Z,101356.63
2023-04-09T09:58:34.268Z,101356.94
2023-04-09T10:01:02.791Z,101354.00
2023-04-09T10:03:32.079Z,101348.38
2023-04-09T10:06:01.424Z,101352.47
2023-04-09T10:08:30.119Z,101349.75
2023-04-09T10:10:56.972Z,101349.97
2023-04-09T10:13:31.476Z,101350.66
2023-04-09T10:15:59.238Z,101348.47
2023-04-09T10:18:26.352Z,101344.09
2023-04-09T10:21:05.777Z,101345.06
2023-04-09T10:23:42.825Z,101346.06
2023-04-09T10:26:10.302Z,101345.63
2023-04-09T10:28:38.307Z,101342.94
2023-04-09T10:31:06.868Z,101340.59
2023-04-09T10:33:36.051Z,101333.06
2023-04-09T10:36:10.403Z,101338.88
2023-04-09T10:38:45.742Z,101342.72
2023-04-09T10:41:22.559Z,101332.88
2023-04-09T10:43:49.441Z,101340.03
2023-04-09T10:46:45.961Z,101328.22
2023-04-09T10:49:21.509Z,101335.91
2023-04-09T10:52:12.619Z,101328.66
2023-04-09T10:54:45.530Z,101323.63
2023-04-09T10:57:22.203Z,101322.63
2023-04-09T10:59:53.726Z,101332.03
2023-04-09T11:02:39.154Z,101330.03
2023-04-09T11:05:17.987Z,101323.06
2023-04-09T11:07:47.469Z,101326.91
2023-04-09T11:10:14.086Z,101321.66
2023-04-09T11:12:41.179Z,101318.41
2023-04-09T11:15:16.481Z,101319.19
2023-04-09T11:17:43.191Z,101313.53
2023-04-09T11:20:10.883Z,101314.00
2023-04-09T11:22:38.274Z,101314.22
2023-04-09T11:25:05.351Z,101307.69
2023-04-09T11:27:37.129Z,101310.94
2023-04-09T11:30:04.045Z,101302.16
2023-04-09T11:32:31.604Z,101303.94
2023-04-09T11:34:58.357Z,101296.78
2023-04-09T11:37:25.141Z,101292.28
2023-04-09T11:39:56.203Z,101296.31
2023-04-09T11:42:25.732Z,101302.78
2023-04-09T11:44:53.562Z,101306.56
2023-04-09T11:47:21.152Z,101300.78
2023-04-09T11:49:48.055Z,101300.91
2023-04-09T11:52:16.585Z,101308.97
2023-04-09T11:54:49.616Z,101303.06
2023-04-09T11:57:16.975Z,101303.00
2023-04-09T11:59:43.835Z,101300.25
2023-04-09T12:02:10.675Z,101301.81
2023-04-09T12:04:37.503Z,101310.03
2023-04-09T12:07:09.589Z,101309.47
2023-04-09T12:09:47.676Z,101308.09
2023-04-09T12:12:19.144Z,101309.34
2023-04-09T12:14:47.431Z,101302.13
2023-04-09T12:17:14.151Z,101308.72
2023-04-09T12:19:40.831Z,101298.13
2023-04-09T12:22:07.519Z,101302.53
2023-04-09T12:24:34.150Z,101307.53
2023-04-09T12:27:01.573Z,101302.19
2023-04-09T12:29:29.849Z,101295.41
2023-04-09T12:31:56.637Z,101296.81
2023-04-09T12:34:23.357Z,101288.78
2023-04-09T12:36:49.988Z,101284.38
2023-04-09T12:39:16.650Z,101278.16
2023-04-09T12:41:43.412Z,101275.97
2023-04-09T12:44:10.048Z,101278.13
2023-04-09T12:46:37.146Z,101275.41
2023-04-09T12:49:04.187Z,101267.13
2023-04-09T12:51:30.977Z,101262.94
2023-04-09T12:53:57.663Z,101275.03
2023-04-09T12:56:24.798Z,101272.09
2023-04-09T12:58:51.756Z,101263.56
2023-04-09T13:01:18.725Z,101263.19
2023-04-09T13:03:45.706Z,101261.94
2023-04-09T13:06:12.728Z,101248.53
2023-04-09T13:08:39.440Z,101252.44
2023-04-09T13:11:06.157Z,101247.22
2023-04-09T13:13:33.511Z,101243.00
2023-04-09T13:16:00.174Z,101248.31
2023-04-09T13:18:26.751Z,101238.03
2023-04-09T13:20:53.330Z,101246.78
2023-04-09T13:23:19.988Z,101238.75
2023-04-09T13:25:46.605Z,101236.03
2023-04-09T13:28:13.246Z,101236.59
2023-04-09T13:30:39.931Z,101239.97
2023-04-09T13:33:06.687Z,101231.09
2023-04-09T13:35:33.356Z,101229.59
2023-04-09T13:38:00.857Z,101225.81
2023-04-09T13:40:27.510Z,101221.84
2023-04-09T13:42:54.138Z,101224.56
2023-04-09T13:45:23.667Z,101223.16
2023-04-09T13:47:50.437Z,101221.38
2023-04-09T13:50:17.140Z,101209.16
2023-04-09T13:52:43.859Z,101207.03
2023-04-09T13:55:11.995Z,101213.41
2023-04-09T13:57:38.951Z,101203.38
2023-04-09T14:00:07.254Z,101203.88
2023-04-09T14:02:34.174Z,101203.19
2023-04-09T14:05:02.448Z,101195.28
2023-04-09T14:07:30.739Z,101197.53
2023-04-09T14:09:57.521Z,101199.06
2023-04-09T14:12:24.199Z,101192.41
2023-04-09T14:14:51.558Z,101187.25
2023-04-09T14:17:18.212Z,101188.22
2023-04-09T14:19:44.817Z,101195.09
2023-04-09T14:22:11.503Z,101195.69
2023-04-09T14:24:40.128Z,101191.81
2023-04-09T14:27:07.730Z,101183.44
2023-04-09T14:29:35.079Z,101175.03
2023-04-09T14:32:01.853Z,101172.66
2023-04-09T14:34:31.138Z,101171.19
2023-04-09T14:36:57.767Z,101176.97
2023-04-09T14:39:24.637Z,101174.31
2023-04-09T14:41:51.868Z,101177.03
2023-04-09T14:44:18.528Z,101170.84
2023-04-09T14:46:45.305Z,101172.97
2023-04-09T14:49:12.073Z,101163.44
2023-04-09T14:51:38.851Z,101169.06
2023-04-09T14:54:05.965Z,101167.50
2023-04-09T14:56:32.641Z,101160.00
2023-04-09T14:58:59.919Z,101160.53
2023-04-09T15:01:27.261Z,101153.78
2023-04-09T15:03:55.161Z,101158.38
2023-04-09T15:06:22.248Z,101160.97
2023-04-09T15:08:49.214Z,101154.72
2023-04-09T15:11:20.584Z,101157.44
2023-04-09T15:13:47.135Z,101165.81
2023-04-09T15:16:28.412Z,101184.06
2023-04-09T15:18:57.664Z,101181.53
2023-04-09T15:21:24.315Z,101157.44
2023-04-09T15:23:51.127Z,101155.53
2023-04-09T15:26:17.855Z,101146.66
2023-04-09T15:28:46.053Z,101149.09
2023-04-09T15:31:13.123Z,101147.19
2023-04-09T15:33:42.730Z,101139.16
2023-04-09T15:36:09.551Z,101136.81
2023-04-09T15:38:36.375Z,101140.88
2023-04-09T15:41:03.004Z,101141.34
2023-04-09T15:43:29.675Z,101138.75
2023-04-09T15:45:56.336Z,101141.66
2023-04-09T15:48:23.022Z,101133.41
2023-04-09T15:50:49.681Z,101134.50
2023-04-09T15:53:16.546Z,101140.75
2023-04-09T15:55:43.134Z,101142.34
2023-04-09T15:58:09.842Z,101133.16
2023-04-09T16:00:36.649Z,101127.19
2023-04-09T16:03:03.418Z,101128.56
2023-04-09T16:05:30.179Z,101133.91
2023-04-09T16:07:59.081Z,101131.59
2023-04-09T16:10:26.475Z,101120.50
2023-04-09T16:12:53.093Z,101128.16
2023-04-09T16:15:19.738Z,101126.19
2023-04-09T16:17:46.375Z,101128.44
2023-04-09T16:20:13.062Z,101121.78
2023-04-09T16:22:39.793Z,101122.22
2023-04-09T16:25:07.198Z,101118.94
2023-04-09T16:27:34.727Z,101130.13
2023-04-09T16:30:01.893Z,101117.38
2023-04-09T16:32:30.670Z,101125.88
2023-04-09T16:35:00.540Z,101124.06
2023-04-09T16:39:54.603Z,101120.78
2023-04-09T16:42:21.637Z,101127.09
2023-04-09T16:44:49.241Z,101124.28
2023-04-09T16:47:16.021Z,101121.25
2023-04-09T16:49:42.640Z,101117.09
2023-04-09T16:52:09.265Z,101125.13
2023-04-09T16:54:36.148Z,101123.66
2023-04-09T16:57:03.158Z,101121.84
2023-04-09T16:59:29.814Z,101114.38
2023-04-09T17:01:56.628Z,101116.19
2023-04-09T17:04:23.426Z,101119.03
2023-04-09T17:06:50.405Z,101113.03
2023-04-09T17:09:17.052Z,101108.97
2023-04-09T17:11:44.539Z,101110.34
2023-04-09T17:14:11.478Z,101121.13
2023-04-09T17:16:38.106Z,101120.59
2023-04-09T17:19:04.954Z,101119.50
2023-04-09T17:21:31.897Z,101121.31
2023-04-09T17:23:58.609Z,101116.56
2023-04-09T17:26:25.235Z,101129.31
2023-04-09T17:28:52.363Z,101120.38
2023-04-09T17:31:19.430Z,101122.19
2023-04-09T17:33:49.220Z,101131.44
2023-04-09T17:36:25.642Z,101126.13
2023-04-09T17:38:52.713Z,101137.13
2023-04-09T17:41:19.700Z,101139.75
2023-04-09T17:43:46.664Z,101141.44
2023-04-09T17:46:13.961Z,101140.91
2023-04-09T17:48:41.647Z,101144.59
2023-04-09T17:51:08.442Z,101146.72
2023-04-09T17:53:35.320Z,101140.38
2023-04-09T17:56:03.854Z,101136.47
2023-04-09T17:58:30.695Z,101137.34
2023-04-09T18:00:58.678Z,101141.38
2023-04-09T18:03:25.909Z,101143.84
2023-04-09T18:05:54.101Z,101140.88
2023-04-09T18:08:21.139Z,101147.25
2023-04-09T18:11:01.681Z,101150.56
2023-04-09T18:13:38.172Z,101153.38
2023-04-09T18:16:09.031Z,101155.56
2023-04-09T18:18:35.784Z,101150.59
2023-04-09T18:21:02.437Z,101152.81
2023-04-09T18:23:29.972Z,101159.19
2023-04-09T18:25:56.593Z,101160.94
2023-04-09T18:28:23.214Z,101168.63
2023-04-09T18:30:50.007Z,101160.75
2023-04-09T18:33:16.683Z,101158.06
2023-04-09T18:35:43.314Z,101166.94
2023-04-09T18:38:09.996Z,101160.28
2023-04-09T18:40:44.233Z,101167.91
2023-04-09T18:43:12.341Z,101167.25
2023-04-09T18:45:41.844Z,101171.22
2023-04-09T18:48:08.885Z,101163.28
2023-04-09T18:50:36.126Z,101164.94
2023-04-09T18:53:03.633Z,101164.88
2023-04-09T18:55:30.704Z,101163.44
2023-04-09T18:57:57.499Z,101164.13
2023-04-09T19:00:24.295Z,101169.50
2023-04-09T19:02:51.566Z,101173.16
2023-04-09T19:05:18.863Z,101179.00
2023-04-09T19:07:45.616Z,101179.41
2023-04-09T19:10:13.111Z,101173.75
2023-04-09T19:12:46.566Z,101171.34
2023-04-09T19:15:13.253Z,101187.66
2023-04-09T19:17:40.347Z,101184.19
2023-04-09T19:20:07.689Z,101190.50
2023-04-09T19:22:34.435Z,101183.97
2023-04-09T19:25:01.155Z,101189.28
2023-04-09T19:27:29.652Z,101183.38
2023-04-09T19:29:58.758Z,101176.19
2023-04-09T19:32:25.578Z,101179.28
2023-04-09T19:34:52.479Z,101183.66
2023-04-09T19:37:19.175Z,101185.66
2023-04-09T19:39:46.053Z,101185.63
2023-04-09T19:42:12.810Z,101188.03
2023-04-09T19:44:39.554Z,101188.19
2023-04-09T19:47:06.327Z,101196.88
2023-04-09T19:49:33.163Z,101193.97
2023-04-09T19:52:00.287Z,101184.94
2023-04-09T19:54:27.106Z,101185.28
2023-04-09T19:56:53.759Z,101182.25
2023-04-09T19:59:20.723Z,101183.78
2023-04-09T20:01:48.578Z,101182.75
2023-04-09T20:04:15.689Z,101187.44
2023-04-09T20:06:43.225Z,101194.13
2023-04-09T20:09:13.472Z,101192.38
2023-04-09T20:11:40.425Z,101197.41
2023-04-09T20:14:07.099Z,101196.97
2023-04-09T20:16:33.877Z,101193.19
2023-04-09T20:19:00.575Z,101197.31
2023-04-09T20:21:27.959Z,101198.25
2023-04-09T20:23:54.696Z,101193.88
2023-04-09T20:26:21.436Z,101193.78
2023-04-09T20:28:48.526Z,101180.53
2023-04-09T20:31:15.306Z,101186.28
2023-04-09T20:33:42.005Z,101189.34
2023-04-09T20:36:16.703Z,101185.09
2023-04-09T20:38:43.949Z,101185.00
2023-04-09T20:41:11.077Z,101185.69
2023-04-09T20:43:38.622Z,101178.22
2023-04-09T20:46:06.264Z,101186.28
2023-04-09T20:48:33.777Z,101182.88
2023-04-09T20:51:02.164Z,101180.06
2023-04-09T20:53:29.111Z,101172.91
2023-04-09T20:55:55.812Z,101170.56
2023-04-09T20:58:22.451Z,101176.66
2023-04-09T21:00:49.201Z,101171.75
2023-04-09T21:03:16.214Z,101178.78
2023-04-09T21:05:43.146Z,101175.72
2023-04-09T21:08:14.626Z,101177.25
2023-04-09T21:10:41.326Z,101175.72
2023-04-09T21:13:07.962Z,101182.03
2023-04-09T21:15:34.643Z,101186.59
2023-04-09T21:18:01.520Z,101186.91
2023-04-09T21:20:28.293Z,101181.53
2023-04-09T21:22:55.083Z,101179.66
2023-04-09T21:25:21.819Z,101192.03
2023-04-09T21:27:48.631Z,101178.13
2023-04-09T21:30:15.418Z,101173.72
2023-04-09T21:32:42.111Z,101171.91
2023-04-09T21:35:09.016Z,101170.88
2023-04-09T21:37:38.864Z,101176.53
2023-04-09T21:40:06.269Z,101172.78
2023-04-09T21:42:32.941Z,101175.38
2023-04-09T21:45:01.284Z,101164.94
2023-04-09T21:47:28.492Z,101162.81
2023-04-09T21:49:55.933Z,101159.63
2023-04-09T21:52:22.661Z,101170.03
2023-04-09T21:54:49.280Z,101160.06
2023-04-09T21:57:16.278Z,101160.50
2023-04-09T21:59:43.422Z,101154.09
2023-04-09T22:02:10.734Z,101161.34
2023-04-09T22:04:37.750Z,101163.00
2023-04-09T22:07:04.493Z,101158.53
2023-04-09T22:09:31.483Z,101169.31
2023-04-09T22:11:58.845Z,101169.19
2023-04-09T22:14:29.517Z,101161.88
2023-04-09T22:16:58.228Z,101161.56
2023-04-09T22:19:26.167Z,101171.94
2023-04-09T22:21:53.518Z,101176.06
2023-04-09T22:24:26.842Z,101181.72
2023-04-09T22:26:53.885Z,101179.88
2023-04-09T22:29:20.803Z,101181.19
2023-04-09T22:31:47.593Z,101179.47
2023-04-09T22:34:21.232Z,101184.63
2023-04-09T22:36:49.393Z,101180.25
2023-04-09T22:39:16.314Z,101182.88
2023-04-09T22:41:43.452Z,101179.59
2023-04-09T22:44:10.491Z,101173.75
2023-04-09T22:46:37.296Z,101172.63
2023-04-09T22:49:05.535Z,101185.03
2023-04-09T22:51:34.663Z,101175.31
2023-04-09T22:54:02.325Z,101176.22
2023-04-09T22:56:31.583Z,101170.38
2023-04-09T22:58:58.506Z,101169.78
2023-04-09T23:01:25.282Z,101167.03
2023-04-09T23:03:52.092Z,101169.38
2023-04-09T23:06:19.138Z,101170.31
2023-04-09T23:08:46.429Z,101165.22
2023-04-09T23:11:13.382Z,101171.31
2023-04-09T23:13:40.448Z,101173.94
2023-04-09T23:16:08.987Z,101176.56
2023-04-09T23:18:36.496Z,101175.91
2023-04-09T23:21:07.277Z,101175.84
2023-04-09T23:23:34.605Z,101168.53
2023-04-09T23:26:01.699Z,101180.56
2023-04-09T23:28:28.772Z,101179.59
2023-04-09T23:30:55.742Z,101174.81
2023-04-09T23:33:22.871Z,101167.84
2023-04-09T23:35:50.373Z,101164.06
2023-04-09T23:38:17.128Z,101162.03
2023-04-09T23:40:43.845Z,101157.41
2023-04-09T23:43:11.163Z,101155.16
2023-04-09T23:45:37.808Z,101151.94
2023-04-09T23:48:06.058Z,101156.13
2023-04-09T23:50:32.863Z,101145.31
2023-04-09T23:53:03.277Z,101139.13
2023-04-09T23:55:30.322Z,101134.78
2023-04-09T23:57:56.962Z,101139.84
